Saturday, September 22, 2018, 10:34 PM EDT
Back to Local

KBLM, Belmar-farmingdale

Location: Farmingdale, NJ, United States Lat: 40.183
Local Time: 10:34 PM EDT ( 2:34 GMT) Lon: -74.133
Time Zone: US/Eastern Elev: 157 ft

Show me the last for .
Show Decoded

2018-09-22 21:56 METAR KBLM 230156Z AUTO 04004KT 10SM CLR 18/12 A3020 RMK AO2 SLP230 T01780117 =
2018-09-22 20:56 METAR KBLM 230056Z AUTO 03003KT 10SM CLR 18/13 A3020 RMK AO2 SLP229 T01780133 =
2018-09-22 19:56 METAR KBLM 222356Z AUTO 31003KT 10SM CLR 18/13 A3019 RMK AO2 SLP227 T01830133
                 10233 20183 53012 =
2018-09-22 18:56 METAR KBLM 222256Z AUTO 34007KT 10SM CLR 19/13 A3018 RMK AO2 SLP222 T01890128 =
2018-09-22 17:56 METAR KBLM 222156Z AUTO 32005KT 10SM CLR 19/13 A3017 RMK AO2 SLP219 T01940128 =
2018-09-22 16:56 METAR KBLM 222056Z AUTO 34008KT 10SM CLR 21/12 A3016 RMK AO2 SLP215 T02060122
                 53007 =
2018-09-22 15:56 METAR KBLM 221956Z AUTO 34010KT 10SM CLR 21/12 A3015 RMK AO2 SLP211 T02110122 =
2018-09-22 14:56 METAR KBLM 221856Z AUTO 32010KT 10SM CLR 23/13 A3014 RMK AO2 SLP208 T02280128 =
2018-09-22 13:56 METAR KBLM 221756Z AUTO 33010KT 10SM CLR 23/12 A3014 RMK AO2 SLP207 T02280117
                 10244 20222 53006 =
2018-09-22 12:56 METAR KBLM 221656Z AUTO 32009KT 10SM CLR 23/11 A3013 RMK AO2 SLP205 T02330106 =
2018-09-22 11:56 METAR KBLM 221556Z AUTO 33014KT 10SM CLR 23/13 A3012 RMK AO2 SLP203 T02330128 =
2018-09-22 10:56 METAR KBLM 221456Z AUTO 36014G18KT 10SM FEW030 23/14 A3012 RMK AO2 SLP201
                 T02330144 51020 =
2018-09-22 09:56 METAR KBLM 221356Z AUTO 34009KT 10SM CLR 23/15 A3011 RMK AO2 SLP198 T02330150 =
2018-09-22 08:56 METAR KBLM 221256Z AUTO 31013KT 10SM BKN031 23/17 A3008 RMK AO2 SLP189 T02280167
                 =
2018-09-22 07:56 METAR KBLM 221156Z AUTO 29007KT 10SM FEW055 23/21 A3006 RMK AO2 SLP181 60000
                 T02280211 10228 20217 53024 =
2018-09-22 06:56 METAR KBLM 221056Z AUTO 25005KT 10SM FEW012 OVC120 22/21 A3003 RMK AO2 RAB23E36
                 SLP171 P0000 T02220206 =
2018-09-22 06:43 METAR KBLM 221043Z AUTO 25005KT 10SM BKN012 OVC110 22/21 A3002 RMK AO2 RAB23E36
                 P0000 =
2018-09-22 05:56 METAR KBLM 220956Z AUTO 24006KT 10SM FEW120 22/21 A3001 RMK AO2 SLP165 T02220206
                 =
2018-09-22 04:56 METAR KBLM 220856Z AUTO 23009KT 10SM SCT017 23/21 A2999 RMK AO2 SLP156 T02280206
                 55001 =
2018-09-22 04:44 METAR KBLM 220844Z AUTO 24008KT 10SM BKN017 23/21 A2998 RMK AO2 =
2018-09-22 03:56 METAR KBLM 220756Z AUTO 24009KT 10SM SCT021 22/20 A2998 RMK AO2 SLP155 T02220200
                 =
2018-09-22 02:53 METAR KBLM 220653Z AUTO 23010KT 10SM BKN021 22/20 A2999 RMK AO2 =
2018-09-22 01:56 METAR KBLM 220556Z AUTO 21012G18KT 10SM CLR 22/19 A2998 RMK AO2 SLP154 T02220194
                 10222 20206 56023 =
2018-09-22 01:30 METAR KBLM 220530Z AUTO 21012G18KT 10SM FEW029 22/19 A2998 RMK AO2 =
2018-09-22 00:56 METAR KBLM 220456Z AUTO 21012G20KT 10SM OVC029 22/19 A2999 RMK AO2 SLP160
                 T02220194 402390178 =
2018-09-22 00:13 METAR KBLM 220413Z AUTO 20010KT 10SM OVC029 22/19 A3001 RMK AO2 =
2018-09-21 23:56 METAR KBLM 220356Z AUTO 20011G18KT 10SM OVC031 21/19 A3002 RMK AO2 SLP169
                 T02110194 =
2018-09-21 22:56 METAR KBLM 220256Z AUTO 19008KT 10SM BKN031 21/19 A3004 RMK AO2 SLP177 T02110189
                 50000 =

Support USWX by starting your Amazon purchase here.